createdAt,value
2022-11-02T00:00:25.318Z,13.20
2022-11-02T00:01:25.139Z,13.18
2022-11-02T00:02:25.560Z,13.18
2022-11-02T00:03:25.497Z,13.18
2022-11-02T00:04:24.967Z,13.18
2022-11-02T00:05:25.079Z,13.18
2022-11-02T00:06:25.360Z,13.20
2022-11-02T00:07:25.107Z,13.20
2022-11-02T00:08:25.164Z,13.20
2022-11-02T00:09:25.124Z,13.20
2022-11-02T00:10:25.017Z,13.20
2022-11-02T00:11:24.900Z,13.20
2022-11-02T00:12:24.905Z,13.20
2022-11-02T00:13:24.891Z,13.20
2022-11-02T00:14:24.876Z,13.20
2022-11-02T00:15:24.872Z,13.20
2022-11-02T00:16:25.071Z,13.20
2022-11-02T00:17:25.017Z,13.14
2022-11-02T00:18:25.149Z,13.04
2022-11-02T00:19:24.872Z,12.88
2022-11-02T00:20:25.098Z,12.81
2022-11-02T00:21:24.851Z,12.70
2022-11-02T00:22:24.775Z,12.62
2022-11-02T00:23:24.774Z,12.54
2022-11-02T00:24:24.804Z,12.46
2022-11-02T00:25:24.716Z,12.42
2022-11-02T00:26:24.755Z,12.38
2022-11-02T00:27:24.954Z,12.33
2022-11-02T00:28:24.695Z,12.30
2022-11-02T00:29:24.676Z,12.31
2022-11-02T00:30:24.890Z,12.33
2022-11-02T00:31:24.717Z,12.33
2022-11-02T00:32:24.706Z,12.33
2022-11-02T00:33:24.762Z,12.38
2022-11-02T00:34:24.634Z,12.41
2022-11-02T00:35:24.635Z,12.42
2022-11-02T00:36:24.644Z,12.45
2022-11-02T00:37:24.598Z,12.46
2022-11-02T00:38:24.645Z,12.48
2022-11-02T00:39:24.713Z,12.49
2022-11-02T00:40:24.707Z,12.46
2022-11-02T00:41:24.749Z,12.48
2022-11-02T00:42:24.767Z,12.49
2022-11-02T00:43:24.666Z,12.52
2022-11-02T00:44:24.805Z,12.51
2022-11-02T00:45:24.531Z,12.60
2022-11-02T00:46:24.528Z,12.66
2022-11-02T00:47:24.510Z,12.70
2022-11-02T00:48:24.503Z,12.77
2022-11-02T00:49:24.509Z,12.81
2022-11-02T00:50:24.535Z,12.85
2022-11-02T00:51:24.508Z,12.88
2022-11-02T00:52:24.456Z,12.89
2022-11-02T00:53:24.468Z,12.92
2022-11-02T00:54:27.524Z,12.92
2022-11-02T00:55:24.445Z,12.95
2022-11-02T00:56:24.465Z,12.99
2022-11-02T00:57:24.429Z,13.00
2022-11-02T00:58:24.400Z,13.00
2022-11-02T00:59:24.414Z,13.03
2022-11-02T01:00:24.394Z,13.04
2022-11-02T01:01:25.107Z,13.07
2022-11-02T01:02:24.736Z,13.07
2022-11-02T01:03:24.446Z,13.07
2022-11-02T01:04:24.306Z,13.11
2022-11-02T01:05:24.623Z,13.11
2022-11-02T01:06:24.330Z,13.11
2022-11-02T01:07:24.299Z,13.11
2022-11-02T01:08:24.794Z,13.11
2022-11-02T01:09:24.307Z,13.12
2022-11-02T01:10:24.294Z,13.15
2022-11-02T01:11:24.273Z,13.14
2022-11-02T01:12:24.267Z,13.17
2022-11-02T01:13:24.245Z,13.17
2022-11-02T01:14:24.623Z,13.14
2022-11-02T01:15:24.466Z,13.12
2022-11-02T01:16:24.413Z,13.09
2022-11-02T01:17:24.429Z,13.14
2022-11-02T01:18:24.227Z,13.17
2022-11-02T01:19:24.364Z,13.17
2022-11-02T01:20:24.340Z,13.15
2022-11-02T01:21:24.330Z,13.14
2022-11-02T01:22:24.156Z,13.14
2022-11-02T01:23:24.121Z,13.11
2022-11-02T01:24:24.195Z,13.09
2022-11-02T01:25:24.176Z,13.07
2022-11-02T01:26:24.164Z,13.04
2022-11-02T01:27:24.142Z,13.03
2022-11-02T01:28:24.127Z,13.00
2022-11-02T01:29:24.332Z,12.97
2022-11-02T01:30:24.197Z,12.93
2022-11-02T01:31:24.063Z,12.89
2022-11-02T01:32:24.127Z,12.88
2022-11-02T01:33:24.397Z,12.81
2022-11-02T01:34:24.052Z,12.79
2022-11-02T01:35:24.068Z,12.79
2022-11-02T01:36:24.158Z,12.77
2022-11-02T01:37:24.059Z,12.77
2022-11-02T01:38:24.262Z,12.75
2022-11-02T01:39:24.222Z,12.74
2022-11-02T01:40:23.990Z,12.74
2022-11-02T01:41:23.989Z,12.74
2022-11-02T01:42:24.009Z,12.71
2022-11-02T01:43:23.976Z,12.71
2022-11-02T01:44:24.190Z,12.71
2022-11-02T01:45:23.950Z,12.71
2022-11-02T01:46:23.987Z,12.71
2022-11-02T01:47:24.117Z,12.71
2022-11-02T01:48:23.926Z,12.74
2022-11-02T01:49:23.923Z,12.78
2022-11-02T01:50:24.124Z,12.87
2022-11-02T01:51:23.910Z,12.93
2022-11-02T01:52:23.861Z,12.97
2022-11-02T01:53:23.872Z,12.97
2022-11-02T01:54:23.846Z,12.99
2022-11-02T01:55:23.902Z,13.03
2022-11-02T01:57:23.848Z,13.06
2022-11-02T01:58:23.836Z,13.06
2022-11-02T01:59:23.835Z,13.04
2022-11-02T02:00:23.802Z,13.06
2022-11-02T02:01:23.959Z,13.12
2022-11-02T02:02:23.964Z,13.17
2022-11-02T02:03:23.791Z,13.18
2022-11-02T02:04:23.845Z,13.27
2022-11-02T02:05:23.757Z,13.33
2022-11-02T02:06:23.744Z,13.37
2022-11-02T02:07:23.741Z,13.47
2022-11-02T02:08:24.325Z,13.49
2022-11-02T02:09:23.718Z,13.52
2022-11-02T02:10:23.732Z,13.54
2022-11-02T02:11:23.707Z,13.55
2022-11-02T02:12:23.677Z,13.52
2022-11-02T02:13:23.772Z,13.51
2022-11-02T02:14:23.689Z,13.46
2022-11-02T02:15:23.649Z,13.43
2022-11-02T02:16:23.713Z,13.40
2022-11-02T02:17:24.073Z,13.38
2022-11-02T02:18:23.597Z,13.36
2022-11-02T02:19:23.609Z,13.36
2022-11-02T02:20:23.611Z,13.38
2022-11-02T02:21:23.607Z,13.36
2022-11-02T02:22:23.782Z,13.36
2022-11-02T02:23:23.560Z,13.33
2022-11-02T02:24:23.767Z,13.30
2022-11-02T02:25:23.585Z,13.25
2022-11-02T02:26:24.113Z,13.25
2022-11-02T02:27:23.521Z,13.25
2022-11-02T02:28:23.745Z,13.22
2022-11-02T02:29:23.660Z,13.17
2022-11-02T02:30:23.549Z,13.17
2022-11-02T02:31:23.631Z,13.17
2022-11-02T02:32:23.625Z,13.18
2022-11-02T02:33:23.500Z,13.18
2022-11-02T02:34:23.424Z,13.20
2022-11-02T02:35:23.635Z,13.25
2022-11-02T02:36:23.421Z,13.32
2022-11-02T02:37:23.494Z,13.29
2022-11-02T02:38:23.447Z,13.32
2022-11-02T02:39:23.655Z,13.37
2022-11-02T02:40:23.437Z,13.38
2022-11-02T02:41:23.508Z,13.40
2022-11-02T02:42:23.618Z,13.38
2022-11-02T02:43:23.624Z,13.37
2022-11-02T02:44:23.407Z,13.37
2022-11-02T02:45:23.509Z,13.33
2022-11-02T02:46:23.389Z,13.33
2022-11-02T02:47:23.590Z,13.33
2022-11-02T02:48:23.371Z,13.36
2022-11-02T02:49:23.328Z,13.41
2022-11-02T02:50:23.436Z,13.44
2022-11-02T02:51:23.294Z,13.41
2022-11-02T02:52:23.254Z,13.40
2022-11-02T02:53:23.290Z,13.40
2022-11-02T02:54:23.257Z,13.38
2022-11-02T02:55:23.249Z,13.41
2022-11-02T02:56:23.456Z,13.38
2022-11-02T02:57:23.420Z,13.40
2022-11-02T02:58:23.355Z,13.40
2022-11-02T02:59:23.271Z,13.41
2022-11-02T03:00:23.391Z,13.44
2022-11-02T03:01:23.281Z,13.44
2022-11-02T03:02:23.284Z,13.46
2022-11-02T03:03:23.489Z,13.47
2022-11-02T03:04:23.177Z,13.46
2022-11-02T03:05:23.328Z,13.47
2022-11-02T03:06:23.175Z,13.49
2022-11-02T03:07:23.208Z,13.49
2022-11-02T03:08:23.141Z,13.52
2022-11-02T03:09:23.535Z,13.51
2022-11-02T03:10:23.308Z,13.51
2022-11-02T03:11:23.537Z,13.49
2022-11-02T03:12:23.114Z,13.47
2022-11-02T03:13:23.192Z,13.43
2022-11-02T03:14:23.139Z,13.40
2022-11-02T03:15:23.389Z,13.40
2022-11-02T03:16:23.050Z,13.37
2022-11-02T03:17:23.255Z,13.37
2022-11-02T03:18:23.203Z,13.37
2022-11-02T03:19:23.161Z,13.37
2022-11-02T03:20:23.053Z,13.36
2022-11-02T03:21:23.156Z,13.37
2022-11-02T03:22:23.147Z,13.36
2022-11-02T03:23:22.983Z,13.36
2022-11-02T03:24:23.385Z,13.33
2022-11-02T03:25:23.029Z,13.32
2022-11-02T03:26:22.982Z,13.33
2022-11-02T03:27:22.965Z,13.36
2022-11-02T03:28:23.115Z,13.36
2022-11-02T03:29:23.360Z,13.33
2022-11-02T03:30:22.908Z,13.33
2022-11-02T03:31:22.899Z,13.36
2022-11-02T03:32:22.893Z,13.38
2022-11-02T03:33:22.857Z,13.36
2022-11-02T03:34:23.090Z,13.36
2022-11-02T03:35:22.850Z,13.30
2022-11-02T03:36:22.941Z,13.29
2022-11-02T03:37:22.863Z,13.25
2022-11-02T03:38:22.862Z,13.24
2022-11-02T03:39:23.289Z,13.20
2022-11-02T03:40:22.835Z,13.15
2022-11-02T03:41:23.216Z,13.15
2022-11-02T03:42:23.035Z,13.12
2022-11-02T03:43:23.116Z,13.11
2022-11-02T03:44:22.947Z,13.11
2022-11-02T03:45:22.880Z,13.11
2022-11-02T03:46:22.924Z,13.11
2022-11-02T03:47:22.727Z,13.12
2022-11-02T03:48:22.732Z,13.09
2022-11-02T03:49:22.714Z,13.09
2022-11-02T03:50:23.339Z,13.04
2022-11-02T03:51:22.725Z,13.04
2022-11-02T03:52:22.689Z,13.02
2022-11-02T03:53:22.875Z,13.00
2022-11-02T03:54:22.679Z,12.97
2022-11-02T03:55:22.818Z,12.97
2022-11-02T03:56:22.987Z,12.96
2022-11-02T03:57:22.703Z,12.96
2022-11-02T03:58:22.955Z,12.96
2022-11-02T03:59:22.787Z,12.96
2022-11-02T04:00:22.887Z,12.96
2022-11-02T04:01:22.790Z,12.96
2022-11-02T04:02:22.820Z,12.95
2022-11-02T04:03:22.557Z,12.96
2022-11-02T04:04:22.782Z,12.96
2022-11-02T04:05:22.768Z,12.95
2022-11-02T04:06:22.656Z,12.96
2022-11-02T04:07:22.654Z,12.95
2022-11-02T04:08:22.920Z,12.93
2022-11-02T04:09:22.863Z,12.93
2022-11-02T04:10:22.703Z,12.93
2022-11-02T04:11:22.702Z,12.93
2022-11-02T04:12:22.484Z,12.92
2022-11-02T04:13:22.618Z,12.92
2022-11-02T04:14:22.634Z,12.89
2022-11-02T04:15:22.492Z,12.87
2022-11-02T04:16:27.767Z,12.87
2022-11-02T04:17:22.698Z,12.85
2022-11-02T04:18:22.430Z,12.84
2022-11-02T04:19:22.444Z,12.84
2022-11-02T04:20:22.410Z,12.84
2022-11-02T04:21:22.378Z,12.85
2022-11-02T04:22:22.375Z,12.84
2022-11-02T04:23:22.553Z,12.79
2022-11-02T04:24:22.352Z,12.77
2022-11-02T04:25:22.358Z,12.75
2022-11-02T04:26:22.392Z,12.71
2022-11-02T04:27:22.340Z,12.67
2022-11-02T04:28:22.342Z,12.64
2022-11-02T04:29:22.313Z,12.66
2022-11-02T04:30:22.291Z,12.66
2022-11-02T04:31:22.284Z,12.69
2022-11-02T04:32:22.286Z,12.69
2022-11-02T04:33:22.442Z,12.69
2022-11-02T04:34:22.234Z,12.71
2022-11-02T04:35:22.228Z,12.74
2022-11-02T04:36:22.348Z,12.75
2022-11-02T04:37:22.300Z,12.78
2022-11-02T04:38:22.492Z,12.75
2022-11-02T04:39:22.202Z,12.75
2022-11-02T04:40:22.245Z,12.74
2022-11-02T04:41:22.231Z,12.74
2022-11-02T04:42:22.174Z,12.79
2022-11-02T04:43:22.174Z,12.81
2022-11-02T04:44:24.904Z,12.82
2022-11-02T04:45:22.195Z,12.82
2022-11-02T04:46:22.162Z,12.82
2022-11-02T04:47:22.319Z,12.78
2022-11-02T04:48:22.145Z,12.77
2022-11-02T04:49:22.133Z,12.77
2022-11-02T04:50:22.276Z,12.75
2022-11-02T04:51:22.104Z,12.74
2022-11-02T04:52:22.190Z,12.74
2022-11-02T04:53:22.222Z,12.71
2022-11-02T04:54:22.522Z,12.70
2022-11-02T04:55:22.352Z,12.67
2022-11-02T04:56:22.069Z,12.67
2022-11-02T04:57:22.223Z,12.64
2022-11-02T04:58:22.001Z,12.63
2022-11-02T04:59:22.101Z,12.60
2022-11-02T05:00:22.145Z,12.60
2022-11-02T05:01:22.201Z,12.62
2022-11-02T05:02:22.172Z,12.63
2022-11-02T05:03:22.162Z,12.64
2022-11-02T05:04:21.947Z,12.66
2022-11-02T05:05:21.956Z,12.66
2022-11-02T05:06:22.226Z,12.70
2022-11-02T05:07:22.156Z,12.70
2022-11-02T05:08:22.484Z,12.70
2022-11-02T05:09:21.914Z,12.74
2022-11-02T05:10:22.738Z,12.75
2022-11-02T05:11:22.173Z,12.75
2022-11-02T05:12:26.623Z,12.75
2022-11-02T05:13:22.029Z,12.74
2022-11-02T05:14:22.438Z,12.77
2022-11-02T05:15:22.057Z,12.71
2022-11-02T05:16:21.860Z,12.74
2022-11-02T05:17:21.829Z,12.71
2022-11-02T05:19:21.870Z,12.74
2022-11-02T05:20:22.127Z,12.77
2022-11-02T05:21:21.880Z,12.75
2022-11-02T05:22:21.783Z,12.77
2022-11-02T05:23:22.248Z,12.79
2022-11-02T05:24:21.775Z,12.79
2022-11-02T05:25:22.358Z,12.82
2022-11-02T05:26:22.080Z,12.82
2022-11-02T05:27:21.927Z,12.84
2022-11-02T05:28:21.801Z,12.87
2022-11-02T05:29:21.807Z,12.88
2022-11-02T05:30:21.897Z,12.87
2022-11-02T05:31:21.854Z,12.89
2022-11-02T05:32:21.851Z,12.89
2022-11-02T05:33:24.484Z,12.89
2022-11-02T05:34:21.725Z,12.87
2022-11-02T05:35:21.644Z,12.85
2022-11-02T05:36:22.178Z,12.81
2022-11-02T05:37:21.701Z,12.78
2022-11-02T05:38:21.633Z,12.77
2022-11-02T05:39:21.650Z,12.79
2022-11-02T05:40:21.612Z,12.78
2022-11-02T05:41:21.725Z,12.75
2022-11-02T05:42:21.583Z,12.74
2022-11-02T05:43:21.694Z,12.74
2022-11-02T05:44:21.884Z,12.69
2022-11-02T05:45:24.490Z,12.66
2022-11-02T05:46:21.667Z,12.64
2022-11-02T05:47:21.699Z,12.60
2022-11-02T05:48:21.788Z,12.59
2022-11-02T05:49:21.903Z,12.57
2022-11-02T05:50:21.522Z,12.54
2022-11-02T05:51:21.892Z,12.54
2022-11-02T05:52:21.492Z,12.54
2022-11-02T05:53:21.472Z,12.54
2022-11-02T05:54:21.479Z,12.52
2022-11-02T05:55:21.458Z,12.51
2022-11-02T05:56:25.016Z,12.49
2022-11-02T05:57:21.850Z,12.48
2022-11-02T05:58:21.401Z,12.44
2022-11-02T05:59:21.726Z,12.45
2022-11-02T06:00:21.431Z,12.45
2022-11-02T06:01:21.718Z,12.44
2022-11-02T06:02:23.417Z,12.41
2022-11-02T06:03:21.456Z,12.41
2022-11-02T06:04:21.838Z,12.37
2022-11-02T06:05:21.473Z,12.34
2022-11-02T06:06:21.393Z,12.34
2022-11-02T06:07:21.449Z,12.34
2022-11-02T06:08:21.351Z,12.37
2022-11-02T06:09:21.632Z,12.38
2022-11-02T06:10:21.313Z,12.38
2022-11-02T06:11:21.318Z,12.38
2022-11-02T06:12:21.479Z,12.37
2022-11-02T06:13:21.654Z,12.37
2022-11-02T06:14:21.364Z,12.37
2022-11-02T06:15:21.414Z,12.38
2022-11-02T06:16:23.297Z,12.34
2022-11-02T06:17:21.441Z,12.38
2022-11-02T06:18:21.231Z,12.34
2022-11-02T06:19:21.327Z,12.37
2022-11-02T06:20:21.412Z,12.33
2022-11-02T06:21:21.354Z,12.34
2022-11-02T06:22:21.295Z,12.38
2022-11-02T06:23:21.224Z,12.34
2022-11-02T06:24:21.173Z,12.34
2022-11-02T06:25:21.239Z,12.37
2022-11-02T06:26:21.184Z,12.34
2022-11-02T06:27:21.137Z,12.34
2022-11-02T06:28:21.128Z,12.37
2022-11-02T06:29:21.172Z,12.34
2022-11-02T06:30:21.111Z,12.34
2022-11-02T06:31:21.104Z,12.34
2022-11-02T06:32:21.476Z,12.38
2022-11-02T06:33:21.046Z,12.39
2022-11-02T06:34:21.138Z,12.39
2022-11-02T06:35:21.204Z,12.44
2022-11-02T06:36:21.016Z,12.45
2022-11-02T06:37:21.529Z,12.48
2022-11-02T06:38:21.067Z,12.49
2022-11-02T06:39:21.074Z,12.51
2022-11-02T06:40:24.117Z,12.56
2022-11-02T06:41:21.189Z,12.57
2022-11-02T06:42:21.379Z,12.59
2022-11-02T06:43:21.330Z,12.62
2022-11-02T06:44:21.007Z,12.60
2022-11-02T06:45:20.971Z,12.57
2022-11-02T06:46:21.205Z,12.57
2022-11-02T06:47:20.993Z,12.59
2022-11-02T06:48:21.021Z,12.57
2022-11-02T06:49:21.115Z,12.59
2022-11-02T06:50:21.031Z,12.59
2022-11-02T06:51:21.115Z,12.60
2022-11-02T06:52:21.028Z,12.60
2022-11-02T06:53:20.884Z,12.60
2022-11-02T06:54:21.104Z,12.62
2022-11-02T06:55:21.225Z,12.63
2022-11-02T06:56:21.883Z,12.64
2022-11-02T06:57:20.946Z,12.64
2022-11-02T06:58:20.891Z,12.66
2022-11-02T06:59:21.151Z,12.63
2022-11-02T07:00:23.703Z,12.64
2022-11-02T07:01:21.163Z,12.66
2022-11-02T07:02:20.995Z,12.66
2022-11-02T07:03:20.989Z,12.66
2022-11-02T07:04:20.794Z,12.66
2022-11-02T07:05:20.923Z,12.67
2022-11-02T07:06:20.860Z,12.70
2022-11-02T07:07:20.895Z,12.70
2022-11-02T07:08:20.730Z,12.74
2022-11-02T07:09:20.736Z,12.74
2022-11-02T07:10:21.057Z,12.78
2022-11-02T07:11:21.019Z,12.75
2022-11-02T07:12:23.166Z,12.77
2022-11-02T07:13:20.691Z,12.77
2022-11-02T07:14:20.827Z,12.77
2022-11-02T07:15:20.718Z,12.78
2022-11-02T07:16:20.659Z,12.77
2022-11-02T07:17:20.710Z,12.75
2022-11-02T07:18:20.910Z,12.75
2022-11-02T07:19:20.950Z,12.74
2022-11-02T07:20:20.671Z,12.74
2022-11-02T07:22:20.701Z,12.74
2022-11-02T07:23:20.769Z,12.74
2022-11-02T07:24:20.613Z,12.71
2022-11-02T07:25:20.613Z,12.69
2022-11-02T07:26:20.777Z,12.69
2022-11-02T07:27:20.657Z,12.69
2022-11-02T07:28:20.555Z,12.67
2022-11-02T07:29:20.558Z,12.67
2022-11-02T07:30:20.502Z,12.67
2022-11-02T07:31:20.926Z,12.66
2022-11-02T07:32:20.559Z,12.66
2022-11-02T07:33:20.682Z,12.67
2022-11-02T07:34:20.519Z,12.66
2022-11-02T07:35:20.465Z,12.69
2022-11-02T07:36:20.445Z,12.66
2022-11-02T07:37:20.620Z,12.69
2022-11-02T07:38:20.695Z,12.67
2022-11-02T07:39:20.610Z,12.66
2022-11-02T07:40:20.422Z,12.66
2022-11-02T07:41:20.657Z,12.64
2022-11-02T07:42:20.606Z,12.64
2022-11-02T07:43:20.463Z,12.67
2022-11-02T07:44:20.372Z,12.69
2022-11-02T07:45:20.363Z,12.78
2022-11-02T07:46:20.322Z,12.87
2022-11-02T07:47:20.330Z,12.93
2022-11-02T07:48:20.321Z,12.99
2022-11-02T07:49:21.761Z,12.97
2022-11-02T07:50:20.327Z,12.95
2022-11-02T07:51:20.887Z,12.95
2022-11-02T07:52:20.833Z,12.95
2022-11-02T07:53:20.372Z,12.97
2022-11-02T07:54:20.352Z,13.00
2022-11-02T07:55:20.906Z,13.06
2022-11-02T07:56:20.456Z,13.12
2022-11-02T07:57:20.260Z,13.15
2022-11-02T07:58:20.252Z,13.18
2022-11-02T07:59:20.707Z,13.20
2022-11-02T08:00:20.288Z,13.22
2022-11-02T08:01:20.515Z,13.22
2022-11-02T08:02:20.317Z,13.22
2022-11-02T08:03:20.309Z,13.21
2022-11-02T08:05:20.173Z,13.12
2022-11-02T08:06:20.865Z,13.12
2022-11-02T08:07:20.318Z,13.12
2022-11-02T08:08:20.352Z,13.07
2022-11-02T08:09:20.260Z,13.07
2022-11-02T08:10:20.415Z,13.07
2022-11-02T08:11:20.156Z,13.07
2022-11-02T08:12:20.236Z,13.07
2022-11-02T08:13:20.416Z,13.09
2022-11-02T08:14:20.634Z,13.11
2022-11-02T08:15:20.143Z,13.14
2022-11-02T08:16:20.072Z,13.12
2022-11-02T08:17:20.235Z,13.11
2022-11-02T08:18:20.189Z,13.09
2022-11-02T08:19:20.113Z,13.07
2022-11-02T08:20:20.221Z,13.09
2022-11-02T08:21:20.238Z,13.11
2022-11-02T08:22:20.388Z,13.18
2022-11-02T08:23:20.120Z,13.21
2022-11-02T08:24:20.185Z,13.22
2022-11-02T08:25:19.987Z,13.21
2022-11-02T08:26:19.990Z,13.20
2022-11-02T08:27:19.959Z,13.18
2022-11-02T08:28:19.934Z,13.17
2022-11-02T08:29:19.939Z,13.14
2022-11-02T08:30:20.383Z,13.11
2022-11-02T08:31:19.894Z,13.11
2022-11-02T08:32:19.952Z,13.09
2022-11-02T08:33:19.893Z,13.06
2022-11-02T08:34:19.898Z,13.04
2022-11-02T08:35:19.866Z,13.02
2022-11-02T08:36:19.848Z,13.00
2022-11-02T08:37:19.880Z,12.99
2022-11-02T08:38:20.086Z,12.97
2022-11-02T08:39:19.809Z,12.99
2022-11-02T08:40:20.031Z,13.00
2022-11-02T08:41:19.844Z,12.97
2022-11-02T08:42:19.962Z,12.97
2022-11-02T08:43:19.803Z,12.99
2022-11-02T08:44:19.814Z,12.99
2022-11-02T08:45:19.777Z,13.03
2022-11-02T08:46:19.771Z,13.07
2022-11-02T08:47:19.760Z,13.11
2022-11-02T08:48:19.719Z,13.15
2022-11-02T08:49:19.743Z,13.21
2022-11-02T08:50:20.196Z,13.25
2022-11-02T08:51:20.205Z,13.29
2022-11-02T08:52:19.673Z,13.32
2022-11-02T08:53:20.076Z,13.33
2022-11-02T08:54:19.782Z,13.25
2022-11-02T08:55:19.775Z,13.24
2022-11-02T08:56:19.845Z,13.18
2022-11-02T08:57:19.645Z,13.17
2022-11-02T08:58:19.619Z,13.22
2022-11-02T08:59:19.625Z,13.29
2022-11-02T09:00:19.581Z,13.36
2022-11-02T09:01:19.725Z,13.43
2022-11-02T09:02:19.743Z,13.49
2022-11-02T09:03:25.960Z,13.54
2022-11-02T09:04:19.583Z,13.54
2022-11-02T09:05:19.577Z,13.54
2022-11-02T09:06:19.565Z,13.65
2022-11-02T09:07:19.555Z,13.62
2022-11-02T09:08:19.777Z,13.58
2022-11-02T09:09:19.700Z,13.55
2022-11-02T09:10:19.523Z,13.51
2022-11-02T09:11:19.564Z,13.47
2022-11-02T09:12:19.542Z,13.51
2022-11-02T09:13:19.547Z,13.54
2022-11-02T09:14:19.551Z,13.61
2022-11-02T09:15:19.464Z,13.69
2022-11-02T09:16:19.990Z,13.76
2022-11-02T09:17:19.464Z,13.79
2022-11-02T09:18:19.448Z,13.77
2022-11-02T09:19:19.446Z,13.79
2022-11-02T09:20:19.589Z,13.94
2022-11-02T09:21:19.583Z,14.02
2022-11-02T09:22:19.436Z,14.06
2022-11-02T09:23:19.382Z,14.13
2022-11-02T09:24:19.513Z,14.14
2022-11-02T09:25:19.516Z,14.14
2022-11-02T09:26:19.389Z,14.07
2022-11-02T09:27:19.394Z,14.10
2022-11-02T09:28:19.358Z,14.25
2022-11-02T09:29:19.408Z,14.37
2022-11-02T09:30:19.803Z,14.60
2022-11-02T09:31:19.275Z,14.94
2022-11-02T09:32:19.383Z,15.20
2022-11-02T09:33:19.308Z,15.41
2022-11-02T09:34:19.471Z,15.72
2022-11-02T09:35:19.384Z,15.96
2022-11-02T09:36:19.273Z,16.07
2022-11-02T09:37:19.371Z,15.88
2022-11-02T09:38:19.572Z,15.70
2022-11-02T09:39:19.437Z,15.54
2022-11-02T09:40:19.263Z,15.33
2022-11-02T09:41:19.347Z,15.09
2022-11-02T09:42:19.568Z,14.86
2022-11-02T09:43:19.251Z,14.74
2022-11-02T09:44:19.210Z,15.05
2022-11-02T09:45:19.157Z,15.01
2022-11-02T09:46:19.299Z,14.95
2022-11-02T09:48:23.502Z,14.98
2022-11-02T09:49:19.125Z,14.84
2022-11-02T09:50:19.340Z,14.91
2022-11-02T09:51:19.181Z,15.19
2022-11-02T09:52:19.255Z,15.42
2022-11-02T09:53:19.289Z,15.45
2022-11-02T09:54:19.269Z,15.70
2022-11-02T09:55:19.094Z,15.66
2022-11-02T09:56:19.414Z,15.45
2022-11-02T09:57:19.485Z,15.39
2022-11-02T09:58:19.057Z,15.49
2022-11-02T09:59:19.035Z,15.46
2022-11-02T10:00:19.852Z,15.39
2022-11-02T10:01:19.221Z,15.28
2022-11-02T10:02:19.284Z,15.12
2022-11-02T10:03:19.136Z,15.01
2022-11-02T10:04:19.093Z,15.36
2022-11-02T10:05:19.013Z,15.93
2022-11-02T10:06:19.399Z,16.55
2022-11-02T10:07:19.081Z,16.73
2022-11-02T10:08:19.165Z,16.96
2022-11-02T10:09:19.025Z,16.88
2022-11-02T10:10:18.937Z,17.32
2022-11-02T10:11:19.131Z,17.73
2022-11-02T10:12:19.032Z,18.18
2022-11-02T10:13:18.897Z,18.58
2022-11-02T10:14:18.932Z,18.94
2022-11-02T10:15:19.034Z,19.31
2022-11-02T10:16:18.874Z,19.69
2022-11-02T10:17:18.890Z,19.90
2022-11-02T10:18:18.854Z,20.12
2022-11-02T10:19:18.896Z,20.30
2022-11-02T10:20:18.835Z,20.46
2022-11-02T10:21:18.779Z,20.15
2022-11-02T10:22:19.020Z,20.46
2022-11-02T10:23:18.913Z,20.58
2022-11-02T10:24:18.790Z,20.99
2022-11-02T10:25:18.765Z,20.89
2022-11-02T10:26:18.782Z,20.83
2022-11-02T10:27:18.855Z,20.98
2022-11-02T10:28:18.916Z,20.98
2022-11-02T10:29:18.731Z,20.13
2022-11-02T10:30:18.967Z,19.72
2022-11-02T10:31:18.914Z,19.60
2022-11-02T10:32:18.775Z,19.78
2022-11-02T10:33:19.201Z,19.93
2022-11-02T10:34:18.698Z,20.34
2022-11-02T10:35:36.732Z,20.53
2022-11-02T10:36:19.548Z,20.62
2022-11-02T10:37:18.673Z,20.87
2022-11-02T10:38:18.667Z,21.16
2022-11-02T10:39:18.629Z,21.34
2022-11-02T10:40:18.626Z,21.32
2022-11-02T10:41:18.624Z,21.21
2022-11-02T10:42:18.627Z,21.17
2022-11-02T10:43:19.191Z,21.05
2022-11-02T10:44:18.765Z,21.02
2022-11-02T10:45:18.766Z,21.05
2022-11-02T10:46:18.540Z,20.89
2022-11-02T10:47:18.696Z,21.20
2022-11-02T10:48:18.526Z,20.53
2022-11-02T10:49:19.092Z,19.70
2022-11-02T10:50:18.549Z,19.24
2022-11-02T10:51:18.922Z,18.87
2022-11-02T10:52:18.735Z,18.50
2022-11-02T10:54:22.824Z,18.83
2022-11-02T10:55:18.545Z,18.28
2022-11-02T10:56:18.513Z,17.73
2022-11-02T10:57:18.492Z,17.22
2022-11-02T10:58:18.785Z,16.98
2022-11-02T10:59:18.702Z,16.98
2022-11-02T11:00:18.568Z,17.14
2022-11-02T11:01:18.568Z,17.46
2022-11-02T11:02:18.459Z,17.91
2022-11-02T11:03:18.537Z,18.40
2022-11-02T11:04:18.444Z,18.76
2022-11-02T11:05:18.398Z,19.13
2022-11-02T11:06:18.361Z,19.39
2022-11-02T11:07:18.401Z,19.57
2022-11-02T11:08:18.444Z,19.68
2022-11-02T11:09:18.378Z,19.95
2022-11-02T11:10:18.528Z,19.63
2022-11-02T11:11:18.424Z,19.61
2022-11-02T11:12:18.519Z,19.61
2022-11-02T11:16:20.635Z,20.71
2022-11-02T11:20:18.520Z,21.60
2022-11-02T11:21:18.423Z,21.08
2022-11-02T11:22:18.416Z,20.41
2022-11-02T11:23:18.255Z,19.43
2022-11-02T11:24:18.424Z,19.21
2022-11-02T11:25:20.715Z,18.59
2022-11-02T11:26:18.260Z,18.74
2022-11-02T11:27:18.175Z,19.10
2022-11-02T11:28:18.202Z,19.38
2022-11-02T11:29:18.473Z,19.76
2022-11-02T11:30:33.533Z,20.03
2022-11-02T11:31:18.353Z,19.88
2022-11-02T11:32:18.568Z,19.75
2022-11-02T11:33:18.096Z,19.90
2022-11-02T11:34:18.273Z,20.08
2022-11-02T11:35:18.126Z,20.18
2022-11-02T11:36:18.117Z,20.02
2022-11-02T11:37:18.274Z,20.08
2022-11-02T11:38:18.102Z,20.39
2022-11-02T11:39:18.090Z,20.58
2022-11-02T11:40:18.232Z,20.76
2022-11-02T11:41:18.062Z,20.81
2022-11-02T11:42:18.041Z,20.72
2022-11-02T11:43:18.017Z,20.59
2022-11-02T11:44:18.049Z,20.68
2022-11-02T11:45:18.032Z,20.83
2022-11-02T11:46:18.485Z,20.79
2022-11-02T11:47:18.244Z,20.89
2022-11-02T11:48:17.937Z,20.71
2022-11-02T11:49:17.967Z,20.64
2022-11-02T11:50:21.040Z,20.80
2022-11-02T11:51:22.813Z,20.83
2022-11-02T11:52:18.196Z,20.87
2022-11-02T11:53:18.096Z,20.66
2022-11-02T11:54:18.184Z,20.46
2022-11-02T11:55:18.156Z,20.13
2022-11-02T11:56:18.173Z,20.18
2022-11-02T11:57:18.046Z,20.23
2022-11-02T11:58:18.317Z,20.13
2022-11-02T11:59:18.279Z,20.30
2022-11-02T12:00:17.876Z,20.15
2022-11-02T12:01:18.003Z,19.35
2022-11-02T12:02:18.112Z,19.20
2022-11-02T12:03:18.303Z,19.28
2022-11-02T12:04:17.873Z,18.83
2022-11-02T12:05:18.037Z,18.47
2022-11-02T12:06:18.028Z,18.46
2022-11-02T12:07:17.995Z,18.83
2022-11-02T12:08:17.833Z,18.86
2022-11-02T12:09:17.818Z,18.72
2022-11-02T12:10:17.771Z,18.46
2022-11-02T12:11:19.127Z,18.55
2022-11-02T12:12:17.769Z,18.54
2022-11-02T12:13:18.035Z,18.55
2022-11-02T12:14:18.554Z,18.62
2022-11-02T12:15:17.742Z,18.73
2022-11-02T12:16:17.870Z,18.82
2022-11-02T12:17:17.785Z,18.94
2022-11-02T12:18:17.690Z,18.80
2022-11-02T12:19:17.888Z,18.84
2022-11-02T12:20:18.548Z,18.97
2022-11-02T12:21:17.932Z,18.83
2022-11-02T12:22:17.696Z,18.84
2022-11-02T12:23:17.834Z,18.74
2022-11-02T12:24:18.019Z,18.72
2022-11-02T12:25:17.632Z,18.77
2022-11-02T12:26:17.629Z,18.98
2022-11-02T12:27:17.612Z,18.86
2022-11-02T12:28:17.629Z,18.92
2022-11-02T12:29:17.596Z,19.05
2022-11-02T12:30:17.595Z,19.18
2022-11-02T12:31:17.539Z,18.99
2022-11-02T12:32:17.577Z,19.11
2022-11-02T12:33:17.529Z,19.05
2022-11-02T12:34:17.786Z,19.18
2022-11-02T12:35:32.835Z,18.76
2022-11-02T12:36:18.175Z,18.90
2022-11-02T12:37:35.783Z,18.91
2022-11-02T12:38:17.543Z,18.99
2022-11-02T12:39:17.499Z,18.72
2022-11-02T12:40:17.994Z,18.39
2022-11-02T12:41:17.471Z,18.18
2022-11-02T12:42:17.456Z,18.09
2022-11-02T12:43:17.751Z,18.19
2022-11-02T12:44:17.444Z,17.94
2022-11-02T12:45:17.411Z,18.04
2022-11-02T12:46:17.419Z,17.79
2022-11-02T12:47:17.608Z,17.73
2022-11-02T12:48:17.532Z,17.63
2022-11-02T12:49:17.357Z,17.59
2022-11-02T12:50:17.424Z,17.18
2022-11-02T12:51:17.335Z,17.23
2022-11-02T12:52:17.389Z,16.93
2022-11-02T12:53:17.387Z,16.59
2022-11-02T12:54:17.419Z,16.35
2022-11-02T12:55:17.715Z,16.15
2022-11-02T12:56:17.352Z,16.01
2022-11-02T12:57:17.281Z,15.94
2022-11-02T12:58:17.316Z,15.79
2022-11-02T12:59:17.292Z,15.68
2022-11-02T13:00:17.301Z,15.79
2022-11-02T13:01:17.441Z,15.88
2022-11-02T13:02:17.311Z,15.96
2022-11-02T13:03:17.273Z,16.09
2022-11-02T13:04:17.217Z,16.27